Time;durP1;ratioP1;P1;durP2;ratioP2;P2;SDS_P1;SDS_P2;PMS_P1;PMS_P2;Temp;Humidity;BMP_temperature;BMP_pressure;BME280_temperature;BME280_humidity;BME280_pressure;Samples;Min_cycle;Max_cycle;Signal;HPM_P1;HPM_P2
2022/09/30 00:02:23;;;;;;;;;24.33;24.33;;;;;11.38;100.00;100176.22;4894937;29;45360;-83
2022/09/30 00:04:49;;;;;;;;;21.67;21.67;;;;;11.35;100.00;100181.56;4877810;29;45433;-84
2022/09/30 00:07:14;;;;;;;;;29.00;26.67;;;;;11.26;100.00;100157.56;4896161;29;45419;-82
2022/09/30 00:09:40;;;;;;;;;25.00;25.00;;;;;11.29;100.00;100178.88;4897285;29;45365;-83
2022/09/30 00:12:05;;;;;;;;;28.00;26.33;;;;;11.27;100.00;100174.41;4896714;28;45526;-83
2022/09/30 00:14:30;;;;;;;;;21.33;19.67;;;;;11.27;100.00;100174.41;4902545;29;45416;-83
2022/09/30 00:16:56;;;;;;;;;30.33;23.33;;;;;11.28;100.00;100176.22;4880188;29;45625;-83
2022/09/30 00:19:21;;;;;;;;;23.33;21.67;;;;;11.26;100.00;100172.66;4895083;29;46814;-82
2022/09/30 00:21:47;;;;;;;;;23.00;21.00;;;;;11.26;100.00;100167.31;4879290;29;45227;-82
2022/09/30 00:24:12;;;;;;;;;25.00;25.00;;;;;11.23;100.00;100173.53;4879544;29;45521;-82
2022/09/30 00:26:38;;;;;;;;;23.33;21.00;;;;;11.17;100.00;100184.19;4862182;29;45434;-82
2022/09/30 00:29:04;;;;;;;;;19.67;18.33;;;;;11.14;100.00;100176.16;4875221;29;46871;-83
2022/09/30 00:31:32;;;;;;;;;17.00;17.00;;;;;11.19;100.00;100177.97;4876846;29;45443;-83
2022/09/30 00:34:07;;;;;;;;;22.00;19.67;;;;;11.18;100.00;100175.28;4861171;29;44877;-82
2022/09/30 00:36:43;;;;;;;;;20.67;19.67;;;;;11.16;100.00;100172.63;4880201;28;44743;-83
2022/09/30 00:39:12;;;;;;;;;21.33;20.33;;;;;11.12;100.00;100175.28;4859490;29;46860;-83
2022/09/30 00:41:38;;;;;;;;;16.33;16.33;;;;;11.13;100.00;100188.59;4876185;29;44999;-83
2022/09/30 00:44:43;;;;;;;;;19.67;19.67;;;;;11.14;100.00;100184.16;4875487;29;44886;-83
2022/09/30 00:47:28;;;;;;;;;21.33;19.33;;;;;11.13;100.00;100193.00;4871747;29;45591;-82
2022/09/30 00:50:17;;;;;;;;;20.67;18.33;;;;;11.11;100.00;100200.09;4884243;29;47782;-83
2022/09/30 00:52:49;;;;;;;;;19.00;19.00;;;;;11.08;100.00;100184.13;4872478;29;45355;-83
2022/09/30 00:55:27;;;;;;;;;23.33;22.00;;;;;11.09;100.00;100185.91;4879426;28;45435;-83
2022/09/30 00:57:55;;;;;;;;;22.33;21.33;;;;;11.07;100.00;100183.25;4897103;28;45373;-83
2022/09/30 01:00:20;;;;;;;;;23.33;22.33;;;;;11.04;100.00;100187.66;4878912;28;45294;-82
2022/09/30 01:02:47;;;;;;;;;18.33;18.33;;;;;10.99;100.00;100193.88;4889573;29;44769;-81
2022/09/30 01:05:13;;;;;;;;;19.00;19.00;;;;;10.89;100.00;100181.41;4893597;29;45435;-82
2022/09/30 01:07:54;;;;;;;;;22.67;20.67;;;;;10.83;100.00;100168.09;4879494;28;45467;-83
2022/09/30 01:10:20;;;;;;;;;19.67;19.67;;;;;10.88;100.00;100179.63;4895108;29;45736;-83
2022/09/30 01:12:45;;;;;;;;;21.00;20.67;;;;;10.90;100.00;100177.84;4896677;29;45449;-83
2022/09/30 01:15:11;;;;;;;;;19.67;18.33;;;;;10.88;100.00;100179.63;4898018;29;45362;-83
2022/09/30 01:18:01;;;;;;;;;20.67;19.67;;;;;10.92;100.00;100184.06;4881943;29;45468;-83
2022/09/30 01:20:56;;;;;;;;;22.00;21.33;;;;;10.88;100.00;100176.09;4911445;28;46643;-83
2022/09/30 01:23:27;;;;;;;;;21.33;19.33;;;;;10.86;100.00;100186.72;4878563;29;44920;-81
2022/09/30 01:26:13;;;;;;;;;23.00;17.67;;;;;10.84;100.00;100193.78;4897225;28;45612;-83
2022/09/30 01:29:00;;;;;;;;;23.67;22.33;;;;;10.78;100.00;100181.34;4897778;28;45400;-82
2022/09/30 01:31:35;;;;;;;;;21.33;19.67;;;;;10.75;100.00;100172.50;4899330;28;45234;-82
2022/09/30 01:34:20;;;;;;;;;22.67;22.67;;;;;10.69;100.00;100181.34;4897631;28;45827;-82
2022/09/30 01:37:06;;;;;;;;;31.00;26.67;;;;;10.69;100.00;100183.13;4881885;28;44790;-83
2022/09/30 01:39:35;;;;;;;;;24.33;20.67;;;;;10.69;100.00;100185.78;4897185;28;45059;-82
2022/09/30 01:42:19;;;;;;;;;21.67;21.67;;;;;10.66;100.00;100175.97;4897679;28;47142;-82
2022/09/30 01:45:07;;;;;;;;;23.00;22.00;;;;;10.69;100.00;100185.78;4896741;28;45461;-83
2022/09/30 01:47:41;;;;;;;;;22.33;20.33;;;;;10.69;100.00;100191.97;4897508;29;45466;-82
2022/09/30 01:50:13;;;;;;;;;19.33;17.00;;;;;10.71;100.00;100198.19;4896743;28;45414;-83
2022/09/30 01:53:19;;;;;;;;;18.67;18.67;;;;;10.69;100.00;100199.06;4894588;29;46404;-84
2022/09/30 01:56:21;;;;;;;;;21.67;20.67;;;;;10.69;100.00;100193.75;4871608;29;45596;-84
2022/09/30 01:58:59;;;;;;;;;17.00;17.00;;;;;10.75;100.00;100199.09;4869363;29;45450;-83
2022/09/30 02:01:34;;;;;;;;;19.33;19.33;;;;;10.74;100.00;100195.53;4878065;28;44985;-82
2022/09/30 02:04:06;;;;;;;;;20.33;19.00;;;;;10.73;100.00;100183.13;4890584;29;45655;-83
2022/09/30 02:06:39;;;;;;;;;22.67;21.67;;;;;10.77;100.00;100186.69;4891078;29;45409;-83
2022/09/30 02:09:13;;;;;;;;;25.33;23.33;;;;;10.74;100.00;100184.00;4857473;29;45501;-83
2022/09/30 02:11:41;;;;;;;;;16.67;16.67;;;;;10.63;100.00;100172.44;4873977;29;45484;-83
2022/09/30 02:14:31;;;;;;;;;22.33;22.33;;;;;10.70;100.00;100190.19;4873076;29;46956;-83
2022/09/30 02:17:04;;;;;;;;;21.33;20.00;;;;;10.68;100.00;100190.19;4874863;29;45413;-82
2022/09/30 02:19:41;;;;;;;;;19.33;19.00;;;;;10.64;100.00;100188.38;4890533;29;45178;-82
2022/09/30 02:25:35;;;;;;;;;19.67;19.00;;;;;10.57;100.00;100178.63;4892662;29;45319;-83
2022/09/30 02:28:09;;;;;;;;;23.33;22.33;;;;;10.50;100.00;100171.47;4896801;29;44869;-83
2022/09/30 02:30:38;;;;;;;;;19.67;18.00;;;;;10.56;100.00;100182.13;4875007;29;44807;-83
2022/09/30 02:33:10;;;;;;;;;22.00;22.00;;;;;10.53;100.00;100184.81;4889516;29;45495;-84
2022/09/30 02:35:43;;;;;;;;;22.33;21.67;;;;;10.52;100.00;100177.69;4890412;29;45654;-83
2022/09/30 02:38:21;;;;;;;;;21.33;19.67;;;;;10.57;100.00;100190.13;4890434;29;45538;-83
2022/09/30 02:40:49;;;;;;;;;20.00;20.00;;;;;10.57;100.00;100184.81;4885706;29;45459;-83
2022/09/30 02:43:16;;;;;;;;;22.67;22.67;;;;;10.55;100.00;100189.25;4895832;29;45367;-82
2022/09/30 02:45:49;;;;;;;;;16.00;16.00;;;;;10.51;100.00;100184.78;4894561;29;47067;-82
2022/09/30 02:48:15;;;;;;;;;20.33;17.33;;;;;10.51;100.00;100198.06;4895573;29;45505;-82
2022/09/30 02:50:51;;;;;;;;;23.00;22.00;;;;;10.48;100.00;100194.50;4896086;29;44895;-83
2022/09/30 02:53:38;;;;;;;;;19.33;19.33;;;;;10.49;100.00;100196.31;4878445;29;45393;-81
2022/09/30 02:56:12;;;;;;;;;19.67;19.67;;;;;10.44;100.00;100196.25;4893419;29;47374;-83
2022/09/30 02:58:42;;;;;;;;;16.00;16.00;;;;;10.39;100.00;100187.38;4894442;29;45835;-83
2022/09/30 03:01:11;;;;;;;;;21.67;19.67;;;;;10.38;100.00;100190.91;4906378;29;45447;-82
2022/09/30 03:03:42;;;;;;;;;19.00;18.33;;;;;10.42;100.00;100203.34;4891996;29;45545;-82
2022/09/30 03:06:09;;;;;;;;;22.67;20.33;;;;;10.42;100.00;100211.31;4892946;29;47248;-83
2022/09/30 03:08:35;;;;;;;;;14.33;12.33;;;;;10.42;100.00;100213.97;4891447;29;46297;-82
2022/09/30 03:11:02;;;;;;;;;20.67;19.33;;;;;10.40;100.00;100213.06;4896595;29;44765;-83
2022/09/30 03:14:01;;;;;;;;;19.33;19.33;;;;;10.44;100.00;100217.53;4906923;29;45467;-83
2022/09/30 03:16:42;;;;;;;;;19.33;16.67;;;;;10.41;100.00;100230.81;4895295;29;45700;-83
2022/09/30 03:19:35;;;;;;;;;24.33;21.33;;;;;10.41;100.00;100230.81;4895741;29;45375;-83
2022/09/30 03:22:23;;;;;;;;;21.33;20.67;;;;;10.40;100.00;100242.31;4895439;29;45436;-83
2022/09/30 03:25:18;;;;;;;;;18.00;16.00;;;;;10.38;100.00;100244.06;4909725;29;45503;-83
2022/09/30 03:28:04;;;;;;;;;21.33;19.00;;;;;10.32;100.00;100244.03;4905929;29;45527;-83
2022/09/30 03:30:37;;;;;;;;;21.00;18.00;;;;;10.33;100.00;100257.34;4877552;29;45881;-82
2022/09/30 03:33:12;;;;;;;;;22.67;18.00;;;;;10.30;100.00;100262.66;4893603;29;45451;-83
2022/09/30 03:35:52;;;;;;;;;18.33;18.33;;;;;10.30;100.00;100273.28;4895462;29;45449;-83
2022/09/30 03:38:45;;;;;;;;;20.33;16.33;;;;;10.30;100.00;100269.69;4894374;29;47028;-81
2022/09/30 03:41:19;;;;;;;;;18.67;17.33;;;;;10.28;100.00;100269.69;4894919;29;45829;-82
2022/09/30 03:44:21;;;;;;;;;14.00;14.00;;;;;10.25;100.00;100290.03;4894735;29;45336;-83
2022/09/30 03:46:55;;;;;;;;;16.00;15.67;;;;;10.20;100.00;100297.97;4854402;29;45682;-83
2022/09/30 03:49:25;;;;;;;;;16.00;15.00;;;;;10.13;100.00;100290.81;4854622;29;45419;-83
2022/09/30 03:51:51;;;;;;;;;16.00;15.67;;;;;10.13;100.00;100294.34;4838906;29;44857;-83
2022/09/30 03:54:17;;;;;;;;;21.00;17.33;;;;;10.18;100.00;100310.34;4840014;29;45464;-83
2022/09/30 03:56:42;;;;;;;;;19.33;18.00;;;;;10.15;100.00;100310.31;4840412;29;45409;-83
2022/09/30 03:59:11;;;;;;;;;16.67;15.00;;;;;10.12;100.00;100316.50;4856006;29;45420;-82
2022/09/30 04:01:38;;;;;;;;;17.00;15.00;;;;;10.08;100.00;100312.03;4842643;29;45575;-82
2022/09/30 04:04:03;;;;;;;;;18.33;17.67;;;;;10.02;100.00;100315.50;4841993;29;45453;-82
2022/09/30 04:06:29;;;;;;;;;16.00;16.00;;;;;10.02;100.00;100320.81;4858043;29;45521;-82
2022/09/30 04:08:54;;;;;;;;;15.67;15.33;;;;;9.95;100.00;100324.28;4841646;29;47679;-84
2022/09/30 04:11:19;;;;;;;;;17.33;17.00;;;;;10.01;100.00;100342.06;4843509;29;45968;-83
2022/09/30 04:13:45;;;;;;;;;13.67;13.67;;;;;10.00;100.00;100342.94;4843667;29;44889;-83
2022/09/30 04:16:10;;;;;;;;;17.33;16.00;;;;;9.97;100.00;100345.56;4857853;29;45462;-84
2022/09/30 04:18:37;;;;;;;;;14.00;13.67;;;;;9.93;100.00;100349.06;4857037;29;45595;-82
2022/09/30 04:21:10;;;;;;;;;16.00;14.67;;;;;9.87;100.00;100349.88;4857459;29;44870;-82
2022/09/30 04:23:37;;;;;;;;;13.33;13.33;;;;;9.85;100.00;100348.09;4877949;29;45462;-83
2022/09/30 04:26:04;;;;;;;;;14.00;14.00;;;;;9.89;100.00;100356.09;4878616;29;45464;-83
2022/09/30 04:28:30;;;;;;;;;12.00;12.00;;;;;9.83;100.00;100350.72;4877581;29;46979;-84
2022/09/30 04:31:02;;;;;;;;;17.00;15.00;;;;;9.86;100.00;100371.13;4894563;29;45506;-82
2022/09/30 04:33:27;;;;;;;;;15.00;14.33;;;;;9.82;100.00;100371.09;4877382;29;45698;-83
2022/09/30 04:35:54;;;;;;;;;15.33;15.33;;;;;9.69;100.00;100363.84;4875893;29;45298;-83
2022/09/30 04:38:24;;;;;;;;;14.00;12.67;;;;;9.70;100.00;100365.63;4880036;29;47133;-82
2022/09/30 04:40:50;;;;;;;;;14.33;14.33;;;;;9.72;100.00;100370.97;4896604;29;45518;-83
2022/09/30 04:43:17;;;;;;;;;17.00;15.67;;;;;9.73;100.00;100376.28;4895562;29;45287;-83
2022/09/30 04:45:45;;;;;;;;;17.33;16.00;;;;;9.70;100.00;100365.63;4897267;29;45528;-82
2022/09/30 04:48:11;;;;;;;;;15.50;15.50;;;;;9.72;100.00;100377.16;4895660;29;48603;-83
2022/09/30 04:50:37;;;;;;;;;17.00;16.33;;;;;9.72;100.00;100371.84;4879907;29;45830;-83
2022/09/30 04:53:02;;;;;;;;;15.00;15.00;;;;;9.63;100.00;100363.78;4895896;28;45359;-83
2022/09/30 04:55:29;;;;;;;;;14.67;14.67;;;;;9.68;100.00;100370.03;4896544;28;45445;-82
2022/09/30 04:57:54;;;;;;;;;16.33;16.33;;;;;9.63;100.00;100371.75;4896561;29;45380;-83
2022/09/30 05:00:20;;;;;;;;;18.67;18.33;;;;;9.59;100.00;100376.16;4879460;29;45440;-83
2022/09/30 05:02:47;;;;;;;;;17.33;15.67;;;;;9.50;100.00;100364.50;4896718;29;44816;-83
2022/09/30 05:05:13;;;;;;;;;19.00;16.33;;;;;9.58;100.00;100376.13;4894520;28;45360;-82
2022/09/30 05:07:39;;;;;;;;;18.00;16.67;;;;;9.49;100.00;100365.38;4861883;29;46827;-81
2022/09/30 05:10:06;;;;;;;;;15.33;15.33;;;;;9.57;100.00;100382.28;4894128;29;45524;-83
2022/09/30 05:12:33;;;;;;;;;19.67;19.67;;;;;9.55;100.00;100370.75;4894860;29;45513;-83
2022/09/30 05:14:58;;;;;;;;;16.00;15.00;;;;;9.54;100.00;100374.31;4895749;29;45402;-83
2022/09/30 05:17:25;;;;;;;;;17.00;17.00;;;;;9.58;100.00;100381.44;4894530;29;45727;-82
2022/09/30 05:19:50;;;;;;;;;17.67;17.00;;;;;9.53;100.00;100370.75;4895112;29;45433;-83
2022/09/30 05:22:16;;;;;;;;;17.67;17.67;;;;;9.56;100.00;100378.75;4878543;28;45019;-83
2022/09/30 05:24:41;;;;;;;;;22.00;19.33;;;;;9.60;100.00;100391.19;4894344;29;45391;-83
2022/09/30 05:27:08;;;;;;;;;19.33;17.00;;;;;9.61;100.00;100387.69;4908849;29;47631;-82
2022/09/30 05:29:34;;;;;;;;;21.00;19.33;;;;;9.57;100.00;100387.59;4894490;29;45438;-83
2022/09/30 05:31:59;;;;;;;;;17.33;15.33;;;;;9.49;100.00;100381.31;4894835;29;45299;-83
2022/09/30 05:34:25;;;;;;;;;19.00;19.00;;;;;9.51;100.00;100384.88;4876961;29;45423;-81
2022/09/30 05:36:50;;;;;;;;;19.00;19.00;;;;;9.54;100.00;100395.53;4896907;29;48368;-82
2022/09/30 05:42:39;;;;;;;;;21.33;19.67;;;;;9.56;100.00;100388.47;4896693;29;45446;-82
2022/09/30 05:45:08;;;;;;;;;22.00;21.67;;;;;9.55;100.00;100381.38;4894828;29;44997;-82
2022/09/30 05:47:34;;;;;;;;;21.00;17.67;;;;;9.54;100.00;100393.75;4894368;29;47081;-83
2022/09/30 05:49:59;;;;;;;;;21.33;21.33;;;;;9.52;100.00;100390.19;4895894;29;45551;-82
2022/09/30 05:52:27;;;;;;;;;16.67;16.67;;;;;9.51;100.00;100387.53;4895191;28;45409;-83
2022/09/30 05:54:53;;;;;;;;;20.00;19.00;;;;;9.56;100.00;100389.38;4880039;29;45382;-83
2022/09/30 05:57:18;;;;;;;;;19.67;17.67;;;;;9.52;100.00;100386.66;4894204;29;47018;-82
2022/09/30 05:59:43;;;;;;;;;22.67;22.67;;;;;9.23;100.00;100342.06;4894354;29;44746;-83
2022/09/30 06:02:10;;;;;;;;;17.00;17.00;;;;;9.49;100.00;100387.50;4879097;28;45359;-82
2022/09/30 06:04:35;;;;;;;;;20.67;20.00;;;;;9.43;100.00;100386.53;4893339;28;45660;-83
2022/09/30 06:07:01;;;;;;;;;16.33;14.67;;;;;9.53;100.00;100407.94;4895491;29;45774;-81
2022/09/30 06:09:26;;;;;;;;;20.33;20.33;;;;;9.56;100.00;100415.03;4878129;29;45464;-83
2022/09/30 06:11:57;;;;;;;;;23.00;21.00;;;;;9.66;100.00;100426.66;4879254;29;45462;-83
2022/09/30 06:14:27;;;;;;;;;23.33;22.00;;;;;9.70;100.00;100423.19;4896290;28;45363;-84
2022/09/30 06:16:52;;;;;;;;;25.00;22.00;;;;;9.66;100.00;100422.25;4896662;29;45107;-84
2022/09/30 06:19:18;;;;;;;;;19.67;17.33;;;;;9.76;100.00;100436.53;4897365;28;45378;-82
2022/09/30 06:21:44;;;;;;;;;22.00;20.33;;;;;9.82;100.00;100440.16;4880427;29;45491;-84
2022/09/30 06:24:12;;;;;;;;;23.67;23.33;;;;;9.90;100.00;100442.00;4897197;28;45506;-82
2022/09/30 06:26:38;;;;;;;;;26.00;24.00;;;;;9.96;100.00;100445.63;4880769;29;47342;-82
2022/09/30 06:29:04;;;;;;;;;22.67;22.67;;;;;9.98;100.00;100450.97;4898902;29;45374;-84
2022/09/30 06:31:30;;;;;;;;;30.00;28.00;;;;;10.10;100.00;100456.41;4882328;29;45284;-83
2022/09/30 06:33:56;;;;;;;;;26.33;22.00;;;;;10.15;100.00;100443.16;4881764;29;44897;-82
2022/09/30 06:36:22;;;;;;;;;26.00;26.00;;;;;10.28;100.00;100449.50;4899572;28;45054;-84
2022/09/30 06:39:26;;;;;;;;;25.00;25.00;;;;;10.35;100.00;100454.94;4884722;29;44852;-82
2022/09/30 06:41:52;;;;;;;;;26.67;26.67;;;;;10.42;100.00;100453.22;4901409;28;45382;-84
2022/09/30 06:44:17;;;;;;;;;28.67;26.33;;;;;10.52;100.00;100459.53;4901025;28;45538;-82
2022/09/30 06:46:43;;;;;;;;;24.00;24.00;;;;;10.57;100.00;100464.03;4900485;28;47172;-83
2022/09/30 06:49:15;;;;;;;;;28.00;22.00;;;;;10.60;100.00;100450.75;4900391;29;45613;-83
2022/09/30 06:51:40;;;;;;;;;25.00;21.67;;;;;10.70;100.00;100458.81;4898335;29;45605;-83
2022/09/30 06:54:07;;;;;;;;;22.00;22.00;;;;;10.80;100.00;100466.88;4898100;29;45466;-82
2022/09/30 06:56:33;;;;;;;;;26.67;23.67;;;;;10.88;100.00;100479.38;4896627;29;46938;-83
2022/09/30 06:58:59;;;;;;;;;29.00;26.00;;;;;10.95;100.00;100470.56;4879841;29;45573;-83
2022/09/30 07:01:24;;;;;;;;;28.00;28.00;;;;;11.04;100.00;100467.09;4896596;29;45402;-84
2022/09/30 07:03:55;;;;;;;;;24.67;23.00;;;;;11.05;100.00;100458.19;4894892;29;45354;-84
2022/09/30 07:06:20;;;;;;;;;24.67;20.33;;;;;11.17;100.00;100461.88;4898178;29;45429;-83
2022/09/30 07:08:53;;;;;;;;;27.33;27.00;;;;;11.24;100.00;100451.25;4897826;29;45438;-82
2022/09/30 07:11:20;;;;;;;;;32.00;30.67;;;;;11.34;100.00;100453.97;4894683;29;45464;-84
2022/09/30 07:13:48;;;;;;;;;28.33;24.67;;;;;11.37;100.00;100456.69;4883401;29;45334;-85
2022/09/30 07:16:14;;;;;;;;;31.00;29.33;;;;;11.36;100.00;100443.34;4868032;29;46778;-85
2022/09/30 07:18:44;;;;;;;;;26.67;26.67;;;;;11.43;100.00;100446.94;4884455;29;44749;-84
2022/09/30 07:21:14;;;;;;;;;31.00;29.00;;;;;11.51;100.00;100451.44;4867368;29;45341;-84
2022/09/30 07:23:52;;;;;;;;;28.00;27.67;;;;;11.65;100.00;100459.47;4884477;29;45246;-84
2022/09/30 07:26:26;;;;;;;;;25.33;25.33;;;;;11.73;100.00;100465.72;4886605;29;45328;-83
2022/09/30 07:28:52;;;;;;;;;29.33;28.67;;;;;11.82;100.00;100463.13;4878833;29;45343;-82
2022/09/30 07:31:23;;;;;;;;;29.33;27.33;;;;;11.92;100.00;100463.22;4878182;29;44764;-82
2022/09/30 07:33:52;;;;;;;;;34.00;31.33;;;;;11.97;100.00;100458.78;4878807;29;44889;-82
2022/09/30 07:36:25;;;;;;;;;31.33;30.33;;;;;12.05;100.00;100467.69;4876411;29;47533;-82
2022/09/30 07:38:52;;;;;;;;;35.33;27.67;;;;;12.10;100.00;100467.69;4892512;29;45448;-83
2022/09/30 07:41:25;;;;;;;;;34.00;29.67;;;;;12.16;100.00;100467.75;4861524;29;45417;-83
2022/09/30 07:43:57;;;;;;;;;30.67;28.67;;;;;12.20;100.00;100465.06;4878421;29;44895;-84
2022/09/30 07:53:07;;;;;;;;;34.33;32.00;;;;;12.45;100.00;100467.81;4887699;29;44758;-84
2022/09/30 07:55:33;;;;;;;;;37.67;33.67;;;;;12.51;100.00;100485.59;4877651;28;45463;-86
2022/09/30 07:58:14;;;;;;;;;35.33;32.67;;;;;12.49;100.00;100460.69;4899741;29;47151;-85
2022/09/30 08:00:52;;;;;;;;;34.67;32.67;;;;;12.64;100.00;100487.38;4899610;29;44843;-84
2022/09/30 08:03:21;;;;;;;;;35.00;32.00;;;;;12.74;100.00;100480.28;4911417;29;44941;-85
2022/09/30 08:05:47;;;;;;;;;36.33;34.00;;;;;12.82;100.00;100489.19;4898279;29;44925;-84
2022/09/30 08:08:15;;;;;;;;;28.67;28.00;;;;;12.85;100.00;100485.66;4912472;29;45397;-81
2022/09/30 08:10:41;;;;;;;;;28.00;26.67;;;;;12.88;100.00;100475.84;4894744;29;45219;-84
2022/09/30 08:13:08;;;;;;;;;36.67;33.67;;;;;13.01;100.00;100488.31;4898686;29;45453;-83
2022/09/30 08:15:37;;;;;;;;;32.67;30.00;;;;;12.88;100.00;100457.16;4877704;29;44993;-84
2022/09/30 08:18:02;;;;;;;;;30.33;27.00;;;;;13.07;100.00;100467.81;4882134;29;46416;-83
2022/09/30 08:20:33;;;;;;;;;26.67;26.00;;;;;13.21;100.00;100482.09;4872764;29;45362;-84
2022/09/30 08:22:59;;;;;;;;;26.33;25.00;;;;;13.28;100.00;100486.50;4887926;29;44789;-82
2022/09/30 08:25:27;;;;;;;;;29.00;25.67;;;;;13.15;100.00;100444.72;4866004;29;45543;-83
2022/09/30 08:27:59;;;;;;;;;29.00;25.67;;;;;13.33;100.00;100459.81;4886749;29;47392;-87
2022/09/30 08:30:34;;;;;;;;;22.00;22.00;;;;;13.44;100.00;100468.72;4866377;28;44764;-88
2022/09/30 08:33:21;;;;;;;;;22.33;20.00;;;;;13.50;100.00;100481.19;4878331;29;45429;-83
2022/09/30 08:35:47;;;;;;;;;21.00;21.00;;;;;13.54;100.00;100478.50;4881333;29;45859;-82
2022/09/30 08:38:16;;;;;;;;;25.67;25.67;;;;;13.57;100.00;100482.94;4879488;29;46742;-85
2022/09/30 08:41:01;;;;;;;;;25.67;22.33;;;;;13.63;100.00;100472.22;4863140;29;44879;-84
2022/09/30 08:44:07;;;;;;;;;25.67;25.67;;;;;13.62;100.00;100456.22;4859487;29;45403;-86
2022/09/30 08:47:20;;;;;;;;;23.00;19.67;;;;;13.84;100.00;100481.09;4874529;29;45262;-85
2022/09/30 08:50:16;;;;;;;;;19.00;18.00;;;;;13.74;100.00;100451.72;4818196;29;46159;-84
2022/09/30 08:52:56;;;;;;;;;25.33;23.33;;;;;13.98;100.00;100473.91;4820159;29;45657;-86
2022/09/30 08:55:48;;;;;;;;;24.33;22.00;;;;;14.03;100.00;100474.75;4822388;29;44879;-85
2022/09/30 08:58:45;;;;;;;;;25.33;24.00;;;;;14.11;100.00;100480.06;4820388;29;45466;-84
2022/09/30 09:01:33;;;;;;;;;19.67;19.67;;;;;14.18;100.00;100482.72;4818446;29;45440;-87
2022/09/30 09:04:05;;;;;;;;;21.00;20.00;;;;;14.17;100.00;100464.88;4803739;29;45316;-84
2022/09/30 09:07:03;;;;;;;;;27.33;26.67;;;;;14.38;100.00;100489.72;4813803;29;44822;-85
2022/09/30 09:10:17;;;;;;;;;28.00;27.33;;;;;14.44;100.00;100491.50;4819788;29;46548;-86
2022/09/30 09:13:49;;;;;;;;;;;;;;;;;;;;;
2022/09/30 09:16:48;;;;;;;;;27.67;27.33;;;;;14.53;100.00;100496.81;4782957;29;72588;-84
2022/09/30 09:19:18;;;;;;;;;31.00;30.00;;;;;14.49;100.00;100495.03;4783454;29;45391;-85
2022/09/30 09:21:59;;;;;;;;;36.00;31.67;;;;;14.42;100.00;100480.78;4858165;29;45677;-86
2022/09/30 09:24:37;;;;;;;;;24.67;24.00;;;;;14.54;100.00;100504.81;4875503;29;47255;-86
2022/09/30 09:27:17;;;;;;;;;24.67;24.67;;;;;14.57;100.00;100496.78;4851089;29;45307;-85
2022/09/30 09:30:26;;;;;;;;;22.33;21.33;;;;;14.67;100.00;100494.06;4843036;29;45484;-85
2022/09/30 09:33:25;;;;;;;;;23.00;19.33;;;;;14.82;100.00;100501.09;4863751;29;45008;-85
2022/09/30 09:36:26;;;;;;;;;23.00;22.00;;;;;14.93;100.00;100500.13;4871567;29;47420;-83
2022/09/30 09:39:11;;;;;;;;;24.33;24.33;;;;;15.07;100.00;100501.78;4865488;29;45401;-84
2022/09/30 09:42:26;;;;;;;;;29.00;24.67;;;;;15.13;100.00;100502.66;4878701;29;45309;-84
2022/09/30 09:45:31;;;;;;;;;17.67;16.67;;;;;15.23;100.00;100510.59;4882583;29;44859;-86
2022/09/30 09:49:26;;;;;;;;;24.00;23.67;;;;;15.25;100.00;100490.94;4896994;29;45330;-86
2022/09/30 09:55:33;;;;;;;;;24.00;24.00;;;;;15.52;100.00;100504.97;4940906;23;47250;-85
2022/09/30 09:58:20;;;;;;;;;19.67;19.67;;;;;15.53;100.00;100496.00;4885484;28;44824;-85
2022/09/30 10:01:42;;;;;;;;;22.00;22.00;;;;;15.36;100.00;100462.22;4885088;29;45332;-85
2022/09/30 10:17:37;;;;;;;;;18.33;18.00;;;;;15.90;97.80;100501.91;4989380;23;45505;-85
2022/09/30 10:20:25;;;;;;;;;18.67;18.67;;;;;15.73;96.96;100463.66;4898034;29;45023;-85
2022/09/30 10:23:25;;;;;;;;;16.33;15.67;;;;;15.83;96.63;100457.28;4898590;28;47027;-86
2022/09/30 10:26:25;;;;;;;;;17.00;15.33;;;;;16.16;92.55;100493.53;4904515;28;45341;-86
2022/09/30 10:29:35;;;;;;;;;16.00;16.00;;;;;16.25;95.23;100497.00;4899809;29;44840;-86
2022/09/30 10:32:22;;;;;;;;;14.33;14.33;;;;;16.22;93.08;100475.56;4908348;29;44797;-85
2022/09/30 10:35:35;;;;;;;;;12.67;12.67;;;;;16.34;93.79;100499.53;4914457;29;45299;-86
2022/09/30 10:38:27;;;;;;;;;11.33;10.67;;;;;16.15;92.06;100454.19;4895323;29;45253;-87
2022/09/30 10:40:58;;;;;;;;;9.67;9.67;;;;;16.31;90.47;100475.47;4887910;29;44855;-86
2022/09/30 10:47:25;;;;;;;;;10.33;10.33;;;;;16.61;88.54;100500.97;4914389;29;45350;-86
2022/09/30 10:50:16;;;;;;;;;9.00;9.00;;;;;16.64;88.15;100500.91;4898481;29;44879;-86
2022/09/30 10:53:16;;;;;;;;;10.33;10.33;;;;;16.64;86.83;100497.34;4915415;28;45112;-86
2022/09/30 10:56:35;;;;;;;;;8.00;8.00;;;;;16.68;86.38;100493.72;4916914;28;44819;-86
2022/09/30 10:59:49;;;;;;;;;7.00;7.00;;;;;16.70;85.79;100489.19;4905227;29;45445;-87
2022/09/30 11:02:44;;;;;;;;;9.00;9.00;;;;;16.74;85.42;100491.84;5066867;23;45542;-87
2022/09/30 11:05:29;;;;;;;;;9.67;9.67;;;;;16.73;83.66;100481.13;4869696;29;45660;-86
2022/09/30 11:08:16;;;;;;;;;9.33;8.00;;;;;16.89;83.57;100497.91;4896960;29;44942;-86
2022/09/30 11:11:26;;;;;;;;;10.33;10.33;;;;;16.96;82.68;100491.50;4895764;29;46250;-87
2022/09/30 11:14:14;;;;;;;;;12.67;12.00;;;;;16.89;81.58;100488.06;4834269;29;45627;-87
2022/09/30 11:17:24;;;;;;;;;12.33;10.00;;;;;16.82;84.96;100497.09;4839408;29;45435;-88
2022/09/30 11:20:45;;;;;;;;;12.00;11.00;;;;;16.68;83.80;100491.03;4786162;29;45269;-86
2022/09/30 11:23:41;;;;;;;;;8.00;8.00;;;;;16.79;83.19;100494.44;4772264;29;45385;-86
2022/09/30 11:26:18;;;;;;;;;10.67;10.67;;;;;16.92;83.34;100497.84;4759143;29;45466;-86
2022/09/30 11:29:11;;;;;;;;;8.67;8.67;;;;;16.98;82.05;100495.94;4768347;29;45521;-86
2022/09/30 11:31:52;;;;;;;;;8.67;8.00;;;;;16.88;81.88;100472.81;4766280;29;45358;-88
2022/09/30 11:34:28;;;;;;;;;10.00;10.00;;;;;16.79;82.20;100465.78;4751480;29;45805;-87
2022/09/30 11:37:15;;;;;;;;;8.00;8.00;;;;;16.93;82.36;100494.25;4767290;29;45370;-88
2022/09/30 11:40:43;;;;;;;;;7.00;7.00;;;;;16.99;80.96;100495.03;4767320;29;45400;-85
2022/09/30 11:43:57;;;;;;;;;5.00;5.00;;;;;17.13;80.58;100493.94;4731789;30;44984;-87
2022/09/30 11:47:10;;;;;;;;;8.33;8.33;;;;;17.27;81.48;100496.38;4738254;30;45218;-87
2022/09/30 11:49:47;;;;;;;;;7.00;7.00;;;;;17.36;79.94;100486.34;4767320;29;45404;-87
2022/09/30 11:52:38;;;;;;;;;9.33;9.33;;;;;17.46;79.41;100483.50;4764995;29;45369;-87
2022/09/30 11:55:44;;;;;;;;;7.67;6.00;;;;;17.57;79.11;100477.00;4783677;29;45388;-87
2022/09/30 11:58:25;;;;;;;;;6.33;6.33;;;;;17.57;78.41;100452.81;4778642;29;46241;-87
2022/09/30 12:01:16;;;;;;;;;3.67;3.67;;;;;17.77;78.81;100476.63;4801929;29;45384;-85
2022/09/30 12:03:49;;;;;;;;;6.00;6.00;;;;;17.85;75.55;100467.53;4802215;29;45510;-84
2022/09/30 12:06:25;;;;;;;;;5.67;5.00;;;;;17.99;77.26;100462.75;4823547;29;45382;-86
2022/09/30 12:08:59;;;;;;;;;5.00;5.00;;;;;18.12;76.23;100466.09;4856423;29;45496;-86
2022/09/30 12:11:36;;;;;;;;;4.67;4.67;;;;;18.19;77.07;100457.81;4842249;29;44765;-86
2022/09/30 12:14:23;;;;;;;;;9.33;9.33;;;;;18.22;75.58;100435.38;4840314;29;45825;-86
2022/09/30 12:16:50;;;;;;;;;6.00;6.00;;;;;18.53;71.10;100462.47;4839608;29;45421;-84
2022/09/30 12:19:37;;;;;;;;;5.00;5.00;;;;;18.59;73.63;100450.66;4840864;29;45391;-84
2022/09/30 12:22:30;;;;;;;;;5.67;5.00;;;;;18.51;70.29;100431.09;4840108;29;45390;-87
2022/09/30 12:25:11;;;;;;;;;3.00;3.00;;;;;18.51;70.88;100428.41;4863731;29;45312;-85
2022/09/30 12:31:37;;;;;;;;;6.33;6.33;;;;;18.38;70.58;100441.28;4880763;29;45443;-84